createdAt,value
2022-07-26T00:00:51.922Z,19.47
2022-07-26T00:01:51.923Z,19.47
2022-07-26T00:02:51.885Z,19.50
2022-07-26T00:03:51.817Z,19.50
2022-07-26T00:04:51.808Z,19.48
2022-07-26T00:05:51.812Z,19.46
2022-07-26T00:06:51.781Z,19.40
2022-07-26T00:07:51.787Z,19.42
2022-07-26T00:08:51.764Z,19.42
2022-07-26T00:09:51.779Z,19.46
2022-07-26T00:10:51.766Z,19.48
2022-07-26T00:11:51.740Z,19.48
2022-07-26T00:12:51.729Z,19.47
2022-07-26T00:13:51.720Z,19.47
2022-07-26T00:14:51.722Z,19.43
2022-07-26T00:15:51.723Z,19.42
2022-07-26T00:16:51.747Z,19.42
2022-07-26T00:17:51.698Z,19.43
2022-07-26T00:18:51.669Z,19.46
2022-07-26T00:19:51.667Z,19.46
2022-07-26T00:20:51.686Z,19.46
2022-07-26T00:21:51.651Z,19.47
2022-07-26T00:22:51.632Z,19.54
2022-07-26T00:23:51.630Z,19.57
2022-07-26T00:24:51.614Z,19.54
2022-07-26T00:25:51.646Z,19.53
2022-07-26T00:26:51.594Z,19.48
2022-07-26T00:27:51.598Z,19.43
2022-07-26T00:28:51.604Z,19.28
2022-07-26T00:29:51.572Z,19.20
2022-07-26T00:30:51.556Z,19.14
2022-07-26T00:31:51.657Z,19.11
2022-07-26T00:32:51.575Z,19.13
2022-07-26T00:33:51.541Z,19.15
2022-07-26T00:34:51.526Z,19.18
2022-07-26T00:35:51.528Z,19.21
2022-07-26T00:36:51.517Z,19.23
2022-07-26T00:37:51.503Z,19.24
2022-07-26T00:38:51.487Z,19.23
2022-07-26T00:39:51.477Z,19.23
2022-07-26T00:40:51.467Z,19.21
2022-07-26T00:41:51.473Z,19.21
2022-07-26T00:42:51.517Z,19.21
2022-07-26T00:43:51.451Z,19.21
2022-07-26T00:44:51.442Z,19.18
2022-07-26T00:45:51.476Z,19.17
2022-07-26T00:46:51.425Z,19.14
2022-07-26T00:47:51.407Z,19.15
2022-07-26T00:48:51.470Z,19.15
2022-07-26T00:49:51.387Z,19.13
2022-07-26T00:50:51.375Z,19.14
2022-07-26T00:51:51.389Z,19.15
2022-07-26T00:52:51.351Z,19.17
2022-07-26T00:53:51.358Z,19.18
2022-07-26T00:54:51.336Z,19.18
2022-07-26T00:55:51.330Z,19.20
2022-07-26T00:56:55.098Z,19.21
2022-07-26T00:57:51.329Z,19.24
2022-07-26T00:58:51.305Z,19.25
2022-07-26T00:59:51.297Z,19.25
2022-07-26T01:00:51.315Z,19.28
2022-07-26T01:01:51.429Z,19.25
2022-07-26T01:02:51.389Z,19.24
2022-07-26T01:03:51.255Z,19.24
2022-07-26T01:04:51.252Z,19.21
2022-07-26T01:05:51.239Z,19.15
2022-07-26T01:06:51.225Z,19.13
2022-07-26T01:07:51.238Z,19.13
2022-07-26T01:08:51.204Z,19.15
2022-07-26T01:09:51.205Z,19.21
2022-07-26T01:10:51.190Z,19.33
2022-07-26T01:11:51.211Z,19.40
2022-07-26T01:12:51.183Z,19.46
2022-07-26T01:13:51.172Z,19.50
2022-07-26T01:14:51.152Z,19.50
2022-07-26T01:15:51.180Z,19.47
2022-07-26T01:16:51.139Z,19.43
2022-07-26T01:17:51.138Z,19.39
2022-07-26T01:18:51.117Z,19.47
2022-07-26T01:19:51.105Z,19.50
2022-07-26T01:20:51.098Z,19.54
2022-07-26T01:21:51.087Z,19.54
2022-07-26T01:22:51.085Z,19.50
2022-07-26T01:23:51.075Z,19.47
2022-07-26T01:24:51.067Z,19.54
2022-07-26T01:25:51.082Z,19.57
2022-07-26T01:26:51.045Z,19.57
2022-07-26T01:27:51.050Z,19.54
2022-07-26T01:28:51.014Z,19.50
2022-07-26T01:29:51.011Z,19.46
2022-07-26T01:30:51.019Z,19.38
2022-07-26T01:31:51.067Z,19.32
2022-07-26T01:32:50.997Z,19.32
2022-07-26T01:33:50.977Z,19.31
2022-07-26T01:34:50.962Z,19.32
2022-07-26T01:35:50.955Z,19.31
2022-07-26T01:36:50.944Z,19.31
2022-07-26T01:37:50.957Z,19.32
2022-07-26T01:38:50.925Z,19.31
2022-07-26T01:39:50.921Z,19.28
2022-07-26T01:40:50.916Z,19.24
2022-07-26T01:41:50.901Z,19.14
2022-07-26T01:42:50.909Z,19.02
2022-07-26T01:43:50.884Z,18.87
2022-07-26T01:44:50.866Z,18.84
2022-07-26T01:45:50.905Z,18.82
2022-07-26T01:46:50.877Z,18.80
2022-07-26T01:47:50.845Z,18.80
2022-07-26T01:48:50.891Z,18.82
2022-07-26T01:49:50.884Z,18.84
2022-07-26T01:50:50.830Z,18.90
2022-07-26T01:51:50.811Z,18.94
2022-07-26T01:52:50.794Z,18.99
2022-07-26T01:53:50.806Z,19.02
2022-07-26T01:54:50.774Z,19.10
2022-07-26T01:55:50.773Z,19.15
2022-07-26T01:56:50.756Z,19.15
2022-07-26T01:57:50.765Z,19.15
2022-07-26T01:58:50.833Z,19.14
2022-07-26T01:59:50.729Z,19.17
2022-07-26T02:00:50.721Z,19.15
2022-07-26T02:01:50.876Z,19.14
2022-07-26T02:02:50.849Z,19.10
2022-07-26T02:03:50.709Z,19.08
2022-07-26T02:04:50.702Z,19.08
2022-07-26T02:05:50.679Z,19.05
2022-07-26T02:06:50.663Z,19.01
2022-07-26T02:07:50.658Z,18.97
2022-07-26T02:08:50.651Z,18.94
2022-07-26T02:09:50.651Z,18.87
2022-07-26T02:10:50.638Z,18.90
2022-07-26T02:11:50.621Z,19.05
2022-07-26T02:12:50.612Z,19.14
2022-07-26T02:13:53.209Z,19.14
2022-07-26T02:14:50.600Z,19.11
2022-07-26T02:15:50.649Z,19.06
2022-07-26T02:16:50.577Z,19.02
2022-07-26T02:17:50.566Z,18.98
2022-07-26T02:18:50.574Z,18.95
2022-07-26T02:19:50.580Z,18.97
2022-07-26T02:20:58.827Z,18.92
2022-07-26T02:21:50.527Z,18.94
2022-07-26T02:22:58.839Z,18.95
2022-07-26T02:25:45.488Z,18.98
2022-07-26T02:26:45.560Z,18.99
2022-07-26T02:27:45.545Z,19.11
2022-07-26T02:28:45.543Z,19.15
2022-07-26T02:29:45.528Z,19.15
2022-07-26T02:30:45.588Z,19.11
2022-07-26T02:31:48.575Z,19.06
2022-07-26T02:32:45.510Z,18.99
2022-07-26T02:33:45.495Z,18.94
2022-07-26T02:34:45.491Z,18.91
2022-07-26T02:35:45.494Z,18.86
2022-07-26T02:36:45.472Z,18.82
2022-07-26T02:37:45.460Z,18.79
2022-07-26T02:38:45.463Z,18.76
2022-07-26T02:39:45.445Z,18.70
2022-07-26T02:40:45.455Z,18.68
2022-07-26T02:41:45.430Z,18.68
2022-07-26T02:42:45.424Z,18.70
2022-07-26T02:43:45.407Z,18.73
2022-07-26T02:44:45.406Z,18.72
2022-07-26T02:45:45.404Z,18.73
2022-07-26T02:46:45.482Z,18.76
2022-07-26T02:47:45.378Z,18.73
2022-07-26T02:48:45.395Z,18.70
2022-07-26T02:49:45.354Z,18.67
2022-07-26T02:50:45.371Z,18.65
2022-07-26T02:51:45.336Z,18.68
2022-07-26T02:52:45.359Z,18.76
2022-07-26T02:53:45.318Z,18.77
2022-07-26T02:54:45.314Z,18.77
2022-07-26T02:55:45.303Z,18.80
2022-07-26T02:56:45.317Z,18.83
2022-07-26T02:57:46.669Z,18.82
2022-07-26T02:58:45.277Z,18.79
2022-07-26T02:59:45.276Z,18.77
2022-07-26T03:00:45.262Z,18.77
2022-07-26T03:01:45.342Z,18.79
2022-07-26T03:02:45.394Z,18.77
2022-07-26T03:03:50.369Z,18.76
2022-07-26T03:04:45.233Z,18.74
2022-07-26T03:05:45.209Z,18.72
2022-07-26T03:06:45.222Z,18.67
2022-07-26T03:07:45.194Z,18.61
2022-07-26T03:08:45.187Z,18.54
2022-07-26T03:09:45.173Z,18.50
2022-07-26T03:10:45.166Z,18.46
2022-07-26T03:11:45.166Z,18.42
2022-07-26T03:12:45.172Z,18.39
2022-07-26T03:13:45.135Z,18.37
2022-07-26T03:14:45.129Z,18.34
2022-07-26T03:15:45.164Z,18.31
2022-07-26T03:16:45.109Z,18.28
2022-07-26T03:17:45.105Z,18.25
2022-07-26T03:18:45.108Z,18.22
2022-07-26T03:19:45.082Z,18.22
2022-07-26T03:20:45.074Z,18.21
2022-07-26T03:21:45.080Z,18.19
2022-07-26T03:22:45.062Z,18.22
2022-07-26T03:23:45.041Z,18.24
2022-07-26T03:24:45.042Z,18.27
2022-07-26T03:25:45.039Z,18.27
2022-07-26T03:26:45.041Z,18.28
2022-07-26T03:27:45.006Z,18.27
2022-07-26T03:28:45.014Z,18.31
2022-07-26T03:29:44.982Z,18.34
2022-07-26T03:30:45.054Z,18.40
2022-07-26T03:31:44.984Z,18.43
2022-07-26T03:32:44.965Z,18.44
2022-07-26T03:33:44.959Z,18.46
2022-07-26T03:34:44.945Z,18.49
2022-07-26T03:35:44.979Z,18.50
2022-07-26T03:36:44.977Z,18.47
2022-07-26T03:37:45.963Z,18.49
2022-07-26T03:38:44.904Z,18.47
2022-07-26T03:39:44.890Z,18.47
2022-07-26T03:40:44.894Z,18.47
2022-07-26T03:41:44.891Z,18.47
2022-07-26T03:42:45.468Z,18.49
2022-07-26T03:43:44.860Z,18.54
2022-07-26T03:44:44.849Z,18.57
2022-07-26T03:45:44.920Z,18.62
2022-07-26T03:46:44.861Z,18.58
2022-07-26T03:47:44.817Z,18.52
2022-07-26T03:48:44.874Z,18.47
2022-07-26T03:49:44.806Z,18.40
2022-07-26T03:50:44.791Z,18.37
2022-07-26T03:51:44.802Z,18.33
2022-07-26T03:52:44.734Z,18.34
2022-07-26T03:53:44.710Z,18.31
2022-07-26T03:54:44.734Z,18.31
2022-07-26T03:55:44.757Z,18.27
2022-07-26T03:56:44.699Z,18.19
2022-07-26T03:57:44.667Z,18.13
2022-07-26T03:58:44.677Z,18.10
2022-07-26T03:59:44.708Z,18.12
2022-07-26T04:00:44.681Z,18.15
2022-07-26T04:01:44.683Z,18.15
2022-07-26T04:02:44.724Z,18.17
2022-07-26T04:03:47.775Z,18.18
2022-07-26T04:04:44.610Z,18.10
2022-07-26T04:05:48.948Z,18.07
2022-07-26T04:06:44.629Z,18.02
2022-07-26T04:07:52.685Z,18.00
2022-07-26T04:08:44.634Z,17.99
2022-07-26T04:09:44.628Z,17.99
2022-07-26T04:10:44.612Z,18.03
2022-07-26T04:11:44.642Z,18.10
2022-07-26T04:12:44.537Z,18.12
2022-07-26T04:13:44.579Z,18.10
2022-07-26T04:14:44.518Z,18.15
2022-07-26T04:15:44.529Z,18.18
2022-07-26T04:16:44.559Z,18.17
2022-07-26T04:17:44.489Z,18.15
2022-07-26T04:18:44.539Z,18.10
2022-07-26T04:19:44.572Z,18.10
2022-07-26T04:20:44.519Z,18.12
2022-07-26T04:21:44.519Z,18.10
2022-07-26T04:22:44.456Z,18.06
2022-07-26T04:23:49.177Z,18.06
2022-07-26T04:24:44.446Z,18.06
2022-07-26T04:25:44.419Z,18.04
2022-07-26T04:26:44.591Z,18.00
2022-07-26T04:27:44.447Z,17.99
2022-07-26T04:28:44.413Z,17.97
2022-07-26T04:29:44.376Z,17.92
2022-07-26T04:30:44.474Z,17.92
2022-07-26T04:31:44.373Z,17.87
2022-07-26T04:32:44.351Z,17.88
2022-07-26T04:33:44.357Z,17.89
2022-07-26T04:34:44.332Z,17.85
2022-07-26T04:35:44.330Z,17.82
2022-07-26T04:36:44.357Z,17.79
2022-07-26T04:37:44.312Z,17.78
2022-07-26T04:38:44.304Z,17.76
2022-07-26T04:39:44.294Z,17.74
2022-07-26T04:40:44.301Z,17.76
2022-07-26T04:41:44.281Z,17.76
2022-07-26T04:42:44.268Z,17.78
2022-07-26T04:43:44.246Z,17.78
2022-07-26T04:44:44.244Z,17.74
2022-07-26T04:45:44.328Z,17.73
2022-07-26T04:46:45.266Z,17.70
2022-07-26T04:47:44.261Z,17.67
2022-07-26T04:48:44.231Z,17.66
2022-07-26T04:49:44.261Z,17.69
2022-07-26T04:50:44.185Z,17.73
2022-07-26T04:51:44.175Z,17.76
2022-07-26T04:52:44.191Z,17.82
2022-07-26T04:53:44.165Z,17.87
2022-07-26T04:54:44.162Z,17.92
2022-07-26T04:55:44.129Z,18.00
2022-07-26T04:56:44.127Z,18.09
2022-07-26T04:57:44.140Z,18.15
2022-07-26T04:58:44.106Z,18.15
2022-07-26T04:59:44.096Z,18.17
2022-07-26T05:01:08.339Z,18.17
2022-07-26T05:01:44.144Z,18.15
2022-07-26T05:02:44.130Z,18.21
2022-07-26T05:03:44.081Z,18.25
2022-07-26T05:04:44.049Z,18.27
2022-07-26T05:05:44.042Z,18.28
2022-07-26T05:06:44.034Z,18.27
2022-07-26T05:07:44.026Z,18.25
2022-07-26T05:08:44.033Z,18.21
2022-07-26T05:09:44.003Z,18.21
2022-07-26T05:10:45.119Z,18.18
2022-07-26T05:11:43.985Z,18.15
2022-07-26T05:12:43.977Z,18.13
2022-07-26T05:13:43.982Z,18.15
2022-07-26T05:14:43.960Z,18.15
2022-07-26T05:15:43.949Z,18.15
2022-07-26T05:16:44.920Z,18.12
2022-07-26T05:17:43.927Z,18.09
2022-07-26T05:18:49.248Z,18.06
2022-07-26T05:19:48.948Z,18.06
2022-07-26T05:20:43.938Z,18.07
2022-07-26T05:21:43.900Z,18.09
2022-07-26T05:22:43.885Z,18.13
2022-07-26T05:23:43.900Z,18.17
2022-07-26T05:24:43.869Z,18.17
2022-07-26T05:25:43.854Z,18.17
2022-07-26T05:26:43.854Z,18.17
2022-07-26T05:27:43.829Z,18.18
2022-07-26T05:28:43.833Z,18.17
2022-07-26T05:29:43.840Z,18.15
2022-07-26T05:30:43.850Z,18.17
2022-07-26T05:31:43.796Z,18.19
2022-07-26T05:32:43.835Z,18.21
2022-07-26T05:33:43.775Z,18.22
2022-07-26T05:34:43.787Z,18.22
2022-07-26T05:35:43.767Z,18.24
2022-07-26T05:36:43.756Z,18.25
2022-07-26T05:37:43.744Z,18.25
2022-07-26T05:38:43.738Z,18.28
2022-07-26T05:39:43.749Z,18.28
2022-07-26T05:40:48.592Z,18.31
2022-07-26T05:41:43.711Z,18.33
2022-07-26T05:42:43.698Z,18.33
2022-07-26T05:43:43.696Z,18.34
2022-07-26T05:44:43.675Z,18.42
2022-07-26T05:45:43.729Z,18.44
2022-07-26T05:46:43.660Z,18.47
2022-07-26T05:47:43.661Z,18.52
2022-07-26T05:48:43.666Z,18.52
2022-07-26T05:49:43.635Z,18.54
2022-07-26T05:50:43.653Z,18.52
2022-07-26T05:51:43.605Z,18.55
2022-07-26T05:52:43.622Z,18.58
2022-07-26T05:53:43.599Z,18.59
2022-07-26T05:54:43.610Z,18.55
2022-07-26T05:55:43.592Z,18.55
2022-07-26T05:56:43.565Z,18.58
2022-07-26T05:57:43.562Z,18.61
2022-07-26T05:58:43.556Z,18.62
2022-07-26T05:59:43.553Z,18.67
2022-07-26T06:00:48.282Z,18.68
2022-07-26T06:01:43.541Z,18.67
2022-07-26T06:02:43.555Z,18.62
2022-07-26T06:03:43.499Z,18.62
2022-07-26T06:04:43.559Z,18.62
2022-07-26T06:05:43.501Z,18.59
2022-07-26T06:06:43.525Z,18.59
2022-07-26T06:07:43.459Z,18.59
2022-07-26T06:08:43.455Z,18.59
2022-07-26T06:09:43.443Z,18.54
2022-07-26T06:10:43.441Z,18.49
2022-07-26T06:11:43.535Z,18.49
2022-07-26T06:12:43.425Z,18.49
2022-07-26T06:13:43.409Z,18.49
2022-07-26T06:14:43.472Z,18.52
2022-07-26T06:15:43.386Z,18.50
2022-07-26T06:16:43.490Z,18.52
2022-07-26T06:17:43.407Z,18.52
2022-07-26T06:18:43.365Z,18.54
2022-07-26T06:19:47.529Z,18.54
2022-07-26T06:20:43.347Z,18.54
2022-07-26T06:21:43.337Z,18.50
2022-07-26T06:22:44.364Z,18.50
2022-07-26T06:23:43.320Z,18.50
2022-07-26T06:24:43.326Z,18.50
2022-07-26T06:25:43.306Z,18.52
2022-07-26T06:26:43.317Z,18.50
2022-07-26T06:27:43.301Z,18.49
2022-07-26T06:28:43.273Z,18.49
2022-07-26T06:29:43.272Z,18.47
2022-07-26T06:30:43.254Z,18.49
2022-07-26T06:31:43.434Z,18.47
2022-07-26T06:32:43.238Z,18.47
2022-07-26T06:33:43.232Z,18.47
2022-07-26T06:34:43.221Z,18.46
2022-07-26T06:35:43.213Z,18.46
2022-07-26T06:36:43.221Z,18.47
2022-07-26T06:37:43.228Z,18.52
2022-07-26T06:38:43.191Z,18.52
2022-07-26T06:39:43.205Z,18.50
2022-07-26T06:40:43.172Z,18.52
2022-07-26T06:41:43.177Z,18.52
2022-07-26T06:42:43.153Z,18.55
2022-07-26T06:43:43.145Z,18.54
2022-07-26T06:44:43.159Z,18.52
2022-07-26T06:45:43.229Z,18.52
2022-07-26T06:46:43.208Z,18.49
2022-07-26T06:47:43.113Z,18.49
2022-07-26T06:48:47.493Z,18.49
2022-07-26T06:49:43.130Z,18.47
2022-07-26T06:50:43.089Z,18.44
2022-07-26T06:51:43.125Z,18.42
2022-07-26T06:52:43.067Z,18.42
2022-07-26T06:53:43.072Z,18.43
2022-07-26T06:54:43.044Z,18.43
2022-07-26T06:55:43.048Z,18.40
2022-07-26T06:56:43.043Z,18.42
2022-07-26T06:57:44.886Z,18.43
2022-07-26T06:58:43.022Z,18.44
2022-07-26T06:59:43.011Z,18.46
2022-07-26T07:00:43.076Z,18.46
2022-07-26T07:01:58.149Z,18.47
2022-07-26T07:02:43.000Z,18.49
2022-07-26T07:03:42.972Z,18.47
2022-07-26T07:04:43.025Z,18.46
2022-07-26T07:05:47.942Z,18.44
2022-07-26T07:06:42.959Z,18.46
2022-07-26T07:07:42.949Z,18.46
2022-07-26T07:08:42.925Z,18.47
2022-07-26T07:09:42.935Z,18.50
2022-07-26T07:10:42.942Z,18.54
2022-07-26T07:11:43.034Z,18.57
2022-07-26T07:12:42.899Z,18.58
2022-07-26T07:13:42.890Z,18.58
2022-07-26T07:14:42.872Z,18.55
2022-07-26T07:15:42.873Z,18.57
2022-07-26T07:16:42.920Z,18.58
2022-07-26T07:17:42.867Z,18.58
2022-07-26T07:18:42.837Z,18.57
2022-07-26T07:19:42.853Z,18.58
2022-07-26T07:20:42.825Z,18.59
2022-07-26T07:21:42.827Z,18.61
2022-07-26T07:22:42.815Z,18.64
2022-07-26T07:23:42.907Z,18.65
2022-07-26T07:24:42.802Z,18.64
2022-07-26T07:25:44.787Z,18.67
2022-07-26T07:26:42.861Z,18.73
2022-07-26T07:27:42.776Z,18.77
2022-07-26T07:28:42.750Z,18.82
2022-07-26T07:29:43.193Z,18.83
2022-07-26T07:30:42.748Z,18.84
2022-07-26T07:31:49.106Z,18.84
2022-07-26T07:32:42.829Z,18.87
2022-07-26T07:33:52.478Z,18.90
2022-07-26T07:34:42.714Z,18.91
2022-07-26T07:35:42.695Z,18.92
2022-07-26T07:36:42.673Z,18.95
2022-07-26T07:37:53.701Z,18.99
2022-07-26T07:38:42.800Z,19.01
2022-07-26T07:39:51.381Z,18.99
2022-07-26T07:40:51.158Z,19.01
2022-07-26T07:41:42.636Z,19.02
2022-07-26T07:42:42.624Z,19.02
2022-07-26T07:43:42.639Z,19.06
2022-07-26T07:44:42.600Z,19.10
2022-07-26T07:45:42.599Z,19.15
2022-07-26T07:46:42.631Z,19.21
2022-07-26T07:47:42.587Z,19.24
2022-07-26T07:48:47.253Z,19.25
2022-07-26T07:49:42.568Z,19.29
2022-07-26T07:50:42.552Z,19.35
2022-07-26T07:51:42.544Z,19.38
2022-07-26T07:52:42.532Z,19.43
2022-07-26T07:53:42.551Z,19.48
2022-07-26T07:54:42.513Z,19.53
2022-07-26T07:55:44.015Z,19.58
2022-07-26T07:56:42.497Z,19.66
2022-07-26T07:57:42.498Z,19.72
2022-07-26T07:58:42.494Z,19.79
2022-07-26T07:59:42.487Z,19.90
2022-07-26T08:00:42.515Z,19.97
2022-07-26T08:01:42.526Z,20.06
2022-07-26T08:02:42.438Z,20.10
2022-07-26T08:03:42.517Z,20.16
2022-07-26T08:04:42.513Z,20.21
2022-07-26T08:05:42.417Z,20.25
2022-07-26T08:06:42.410Z,20.23
2022-07-26T08:07:42.417Z,20.23
2022-07-26T08:08:42.398Z,20.20
2022-07-26T08:09:43.091Z,20.18
2022-07-26T08:10:49.139Z,20.15
2022-07-26T08:11:42.366Z,20.12
2022-07-26T08:12:42.357Z,20.08
2022-07-26T08:13:47.296Z,20.05
2022-07-26T08:14:42.336Z,20.00
2022-07-26T08:15:42.322Z,19.98
2022-07-26T08:16:42.361Z,19.97
2022-07-26T08:17:42.306Z,19.95
2022-07-26T08:18:55.980Z,19.91
2022-07-26T08:19:42.619Z,19.88
2022-07-26T08:20:42.273Z,19.86
2022-07-26T08:21:42.269Z,19.86
2022-07-26T08:22:42.261Z,19.84
2022-07-26T08:23:42.281Z,19.83
2022-07-26T08:24:42.234Z,19.78
2022-07-26T08:25:55.140Z,19.75
2022-07-26T08:26:42.221Z,19.72
2022-07-26T08:43:02.028Z,20.00
2022-07-26T08:47:06.522Z,19.94
2022-07-26T08:48:23.316Z,19.86
2022-07-26T08:48:45.318Z,19.79
2022-07-26T08:49:56.518Z,19.79
2022-07-26T08:50:43.325Z,19.75
2022-07-26T08:51:44.460Z,19.66
2022-07-26T09:09:52.448Z,19.47
2022-07-26T09:11:20.525Z,19.55
2022-07-26T09:11:53.087Z,19.58
2022-07-26T09:14:57.338Z,19.72
2022-07-26T09:15:41.505Z,19.80
2022-07-26T09:16:41.547Z,19.83
2022-07-26T09:17:51.086Z,19.88
2022-07-26T09:20:11.682Z,20.02
2022-07-26T09:21:14.772Z,20.05
2022-07-26T09:22:14.303Z,20.10
2022-07-26T09:23:17.282Z,20.08
2022-07-26T09:24:17.829Z,20.06
2022-07-26T09:25:16.180Z,20.13
2022-07-26T09:26:54.386Z,20.16
2022-07-26T09:27:15.253Z,20.15
2022-07-26T09:28:21.758Z,20.09
2022-07-26T09:30:05.214Z,20.08
2022-07-26T09:31:25.837Z,20.15
2022-07-26T09:31:33.565Z,20.15
2022-07-26T09:32:32.498Z,20.08
2022-07-26T09:33:47.123Z,19.94
2022-07-26T09:34:34.111Z,19.88
2022-07-26T09:35:51.251Z,19.78
2022-07-26T09:36:37.280Z,19.75
2022-07-26T09:37:32.867Z,19.70
2022-07-26T09:38:35.415Z,19.68
2022-07-26T09:39:33.971Z,19.55
2022-07-26T09:41:20.759Z,19.55
2022-07-26T09:41:39.195Z,19.65
2022-07-26T09:42:35.512Z,19.75
2022-07-26T09:43:32.284Z,19.83
2022-07-26T09:44:32.666Z,19.83
2022-07-26T09:45:34.260Z,19.88
2022-07-26T09:46:33.073Z,20.00
2022-07-26T09:47:32.983Z,20.10
2022-07-26T09:48:52.197Z,20.09
2022-07-26T09:49:40.165Z,19.97
2022-07-26T09:50:33.760Z,19.93
2022-07-26T09:51:31.253Z,20.00
2022-07-26T09:52:34.218Z,20.06
2022-07-26T09:53:31.269Z,20.03
2022-07-26T09:54:31.488Z,20.02
2022-07-26T09:55:44.848Z,19.98
2022-07-26T09:56:31.181Z,19.94
2022-07-26T09:57:31.231Z,19.88
2022-07-26T09:58:31.149Z,19.86
2022-07-26T09:59:33.821Z,19.76
2022-07-26T10:00:34.289Z,19.78
2022-07-26T10:01:34.025Z,19.79
2022-07-26T10:02:34.366Z,19.76
2022-07-26T10:03:31.395Z,19.79
2022-07-26T10:04:31.140Z,19.84
2022-07-26T10:05:40.655Z,19.93
2022-07-26T10:06:32.189Z,20.00
2022-07-26T10:07:32.907Z,20.08
2022-07-26T10:08:31.085Z,20.16
2022-07-26T10:09:31.833Z,20.30
2022-07-26T10:10:31.098Z,20.38
2022-07-26T10:11:32.962Z,20.50
2022-07-26T10:12:33.796Z,20.64
2022-07-26T10:13:33.775Z,20.74
2022-07-26T10:14:31.063Z,20.86
2022-07-26T10:15:41.360Z,20.96
2022-07-26T10:16:31.082Z,21.05
2022-07-26T10:17:36.120Z,21.09
2022-07-26T10:18:31.741Z,21.13
2022-07-26T10:19:31.017Z,21.19
2022-07-26T10:20:31.243Z,21.20
2022-07-26T10:21:30.982Z,21.23
2022-07-26T10:22:31.796Z,21.24
2022-07-26T10:23:30.999Z,21.27
2022-07-26T10:24:30.985Z,21.29
2022-07-26T10:25:30.938Z,21.26
2022-07-26T10:26:30.942Z,21.27
2022-07-26T10:27:31.814Z,21.24
2022-07-26T10:28:30.926Z,21.20
2022-07-26T10:29:30.927Z,21.17
2022-07-26T10:30:34.986Z,21.14
2022-07-26T10:31:31.504Z,21.11
2022-07-26T10:32:33.301Z,21.09
2022-07-26T10:33:34.510Z,21.08
2022-07-26T10:34:30.874Z,21.09
2022-07-26T10:35:30.879Z,21.09
2022-07-26T10:36:30.841Z,21.11
2022-07-26T10:37:30.827Z,21.09
2022-07-26T10:38:30.835Z,21.09
2022-07-26T10:39:30.814Z,21.08
2022-07-26T10:40:30.799Z,21.09
2022-07-26T10:41:30.794Z,21.05
2022-07-26T10:42:30.805Z,21.01
2022-07-26T10:43:40.675Z,21.01
2022-07-26T10:44:30.761Z,21.02
2022-07-26T10:45:31.206Z,21.05
2022-07-26T10:46:30.769Z,21.08
2022-07-26T10:47:35.158Z,21.16
2022-07-26T10:48:30.845Z,21.20
2022-07-26T10:49:30.719Z,21.27
2022-07-26T10:50:32.476Z,21.32
2022-07-26T10:51:30.965Z,21.39
2022-07-26T10:52:30.690Z,21.41
2022-07-26T10:53:31.516Z,21.46
2022-07-26T10:54:30.671Z,21.50
2022-07-26T10:55:30.918Z,21.53
2022-07-26T10:56:33.769Z,21.59
2022-07-26T10:57:30.640Z,21.64
2022-07-26T10:58:30.629Z,21.63
2022-07-26T10:59:54.324Z,21.64
2022-07-26T11:00:30.624Z,21.66
2022-07-26T11:01:30.679Z,21.67
2022-07-26T11:02:30.644Z,21.71
2022-07-26T11:03:34.222Z,21.74
2022-07-26T11:04:30.588Z,21.75
2022-07-26T11:05:40.126Z,21.72
2022-07-26T11:06:40.151Z,21.72
2022-07-26T11:07:38.835Z,21.63
2022-07-26T11:08:42.425Z,21.64
2022-07-26T11:11:19.548Z,21.63
2022-07-26T11:12:19.573Z,21.57
2022-07-26T11:13:19.562Z,21.54
2022-07-26T11:14:21.372Z,21.56
2022-07-26T11:15:20.323Z,21.60
2022-07-26T11:16:19.650Z,21.63
2022-07-26T11:17:19.743Z,21.66
2022-07-26T11:18:19.575Z,21.71
2022-07-26T11:19:19.587Z,21.72
2022-07-26T11:20:20.135Z,21.76
2022-07-26T11:21:19.522Z,21.78
2022-07-26T11:22:24.241Z,21.82
2022-07-26T11:23:19.738Z,21.88
2022-07-26T11:24:19.513Z,21.94
2022-07-26T11:25:20.053Z,21.97
2022-07-26T11:26:19.465Z,21.99
2022-07-26T11:27:19.463Z,22.01
2022-07-26T11:28:19.463Z,21.98
2022-07-26T11:29:19.620Z,21.94
2022-07-26T11:30:19.475Z,21.94
2022-07-26T11:31:20.202Z,21.94
2022-07-26T11:32:20.309Z,21.94
2022-07-26T11:33:19.406Z,21.97
2022-07-26T11:34:19.645Z,21.98
2022-07-26T11:35:19.436Z,21.99
2022-07-26T11:36:19.381Z,22.04
2022-07-26T11:37:19.400Z,22.10
2022-07-26T11:38:21.610Z,22.13
2022-07-26T11:39:19.349Z,22.13
2022-07-26T11:40:19.385Z,22.09
2022-07-26T11:41:21.029Z,22.07
2022-07-26T11:42:19.324Z,22.10
2022-07-26T11:43:19.320Z,22.16
2022-07-26T11:44:19.309Z,22.23
2022-07-26T11:45:19.312Z,22.31
2022-07-26T11:46:19.611Z,22.35
2022-07-26T11:47:19.286Z,22.43
2022-07-26T11:48:19.280Z,22.49
2022-07-26T11:49:19.384Z,22.53
2022-07-26T11:50:23.522Z,22.53
2022-07-26T11:51:19.248Z,22.53
2022-07-26T11:52:25.348Z,22.56
2022-07-26T11:53:19.267Z,22.57
2022-07-26T11:54:19.225Z,22.56
2022-07-26T11:55:21.948Z,22.57
2022-07-26T11:56:19.474Z,22.60
2022-07-26T11:57:19.229Z,22.57
2022-07-26T11:58:19.176Z,22.57
2022-07-26T11:59:19.168Z,22.59
2022-07-26T12:00:19.192Z,22.62
2022-07-26T12:01:19.175Z,22.64
2022-07-26T12:02:19.135Z,22.69
2022-07-26T12:03:19.131Z,22.75
2022-07-26T12:04:19.405Z,22.78
2022-07-26T12:05:19.877Z,22.86
2022-07-26T12:06:19.103Z,22.90
2022-07-26T12:07:21.644Z,22.93
2022-07-26T12:08:20.786Z,22.97
2022-07-26T12:09:19.086Z,22.99
2022-07-26T12:10:19.084Z,23.02
2022-07-26T12:11:19.084Z,23.07
2022-07-26T12:12:21.697Z,23.14
2022-07-26T12:13:19.086Z,23.19
2022-07-26T12:14:21.162Z,23.27
2022-07-26T12:15:21.314Z,23.35
2022-07-26T12:16:19.702Z,23.42
2022-07-26T12:17:21.691Z,23.45
2022-07-26T12:18:21.748Z,23.49
2022-07-26T12:23:02.067Z,22.65
2022-07-26T12:24:02.098Z,22.59
2022-07-26T12:25:02.068Z,22.62
2022-07-26T12:26:04.453Z,22.71
2022-07-26T12:27:44.766Z,22.82
2022-07-26T12:28:02.262Z,22.84
2022-07-26T12:29:02.011Z,22.82
2022-07-26T12:30:02.001Z,22.83
2022-07-26T12:31:02.991Z,22.89
2022-07-26T12:32:01.996Z,22.89
2022-07-26T12:33:01.967Z,22.87
2022-07-26T12:34:01.963Z,22.87
2022-07-26T12:35:01.967Z,22.93
2022-07-26T12:36:01.938Z,22.84
2022-07-26T12:37:01.977Z,22.72
2022-07-26T12:38:01.939Z,22.67
2022-07-26T12:39:01.930Z,22.59
2022-07-26T12:40:01.909Z,22.67
2022-07-26T12:41:02.208Z,22.64
2022-07-26T12:42:01.926Z,22.59
2022-07-26T12:43:02.839Z,22.60
2022-07-26T12:44:01.873Z,22.67
2022-07-26T12:45:02.136Z,22.75
2022-07-26T12:46:01.984Z,22.78
2022-07-26T12:47:03.593Z,22.75
2022-07-26T12:48:03.616Z,22.67
2022-07-26T12:49:03.756Z,22.57
2022-07-26T12:50:12.408Z,22.62
2022-07-26T12:56:12.758Z,22.72
2022-07-26T12:56:20.770Z,22.71
2022-07-26T12:57:17.553Z,22.71
2022-07-26T12:58:17.523Z,22.67
2022-07-26T12:59:18.074Z,22.74
2022-07-26T13:00:17.545Z,22.75
2022-07-26T13:01:17.587Z,22.82
2022-07-26T13:02:17.539Z,22.83
2022-07-26T13:03:18.137Z,22.83
2022-07-26T13:04:17.676Z,22.87
2022-07-26T13:05:42.905Z,22.96
2022-07-26T13:06:19.296Z,22.97
2022-07-26T13:07:17.476Z,22.99
2022-07-26T13:08:19.278Z,22.93
2022-07-26T13:09:40.235Z,22.83
2022-07-26T13:10:34.562Z,22.89
2022-07-26T13:11:17.427Z,22.93
2022-07-26T13:12:17.391Z,22.93
2022-07-26T13:13:17.443Z,23.01
2022-07-26T13:14:17.414Z,23.07
2022-07-26T13:15:17.395Z,23.12
2022-07-26T13:29:35.474Z,24.38
2022-07-26T13:32:32.802Z,24.29
2022-07-26T13:33:30.823Z,24.37
2022-07-26T13:34:35.049Z,24.32
2022-07-26T13:35:30.745Z,24.42
2022-07-26T13:36:53.783Z,24.52
2022-07-26T13:37:35.269Z,24.61
2022-07-26T13:38:30.791Z,24.57
2022-07-26T13:39:56.087Z,24.39
2022-07-26T13:40:32.743Z,24.17
2022-07-26T13:41:32.746Z,24.13
2022-07-26T13:42:32.436Z,24.07
2022-07-26T13:43:32.256Z,24.08
2022-07-26T13:44:30.656Z,24.12
2022-07-26T13:45:40.470Z,24.17
2022-07-26T13:46:33.464Z,24.24
2022-07-26T13:47:32.633Z,24.27
2022-07-26T13:48:30.669Z,24.32
2022-07-26T13:49:30.692Z,24.29
2022-07-26T13:50:30.564Z,24.37
2022-07-26T13:51:30.649Z,24.49
2022-07-26T13:52:30.689Z,24.68
2022-07-26T13:53:30.627Z,24.69
2022-07-26T13:54:30.624Z,24.80
2022-07-26T13:55:30.614Z,24.92
2022-07-26T13:56:30.579Z,25.07
2022-07-26T13:57:48.030Z,25.16
2022-07-26T13:58:30.657Z,25.30